createdAt,value
2023-05-05T00:02:35.000Z,7.37
2023-05-05T00:07:35.000Z,7.32
2023-05-05T00:12:36.000Z,7.47
2023-05-05T00:17:36.000Z,7.6
2023-05-05T00:22:35.000Z,7.63
2023-05-05T00:27:36.000Z,7.66
2023-05-05T00:32:35.000Z,7.8
2023-05-05T00:37:35.000Z,8.01
2023-05-05T00:42:35.000Z,8.13
2023-05-05T00:47:36.000Z,8.13
2023-05-05T00:52:35.000Z,8.22
2023-05-05T00:57:36.000Z,8.32
2023-05-05T01:02:35.000Z,8.2
2023-05-05T01:07:36.000Z,7.88
2023-05-05T01:12:35.000Z,7.74
2023-05-05T01:17:36.000Z,7.77
2023-05-05T01:22:36.000Z,7.74
2023-05-05T01:27:36.000Z,7.41
2023-05-05T01:32:35.000Z,7.25
2023-05-05T01:37:35.000Z,7.2
2023-05-05T01:42:35.000Z,7.19
2023-05-05T01:47:35.000Z,7.27
2023-05-05T01:52:36.000Z,7.35
2023-05-05T01:57:36.000Z,7.35
2023-05-05T02:02:36.000Z,7.36
2023-05-05T02:07:36.000Z,7.36
2023-05-05T02:12:35.000Z,7.32
2023-05-05T02:17:36.000Z,7.22
2023-05-05T02:22:36.000Z,7.15
2023-05-05T02:27:36.000Z,7.08
2023-05-05T02:32:35.000Z,7.07
2023-05-05T02:37:35.000Z,6.99
2023-05-05T02:42:35.000Z,6.88
2023-05-05T02:47:35.000Z,7.01
2023-05-05T02:52:36.000Z,7.11
2023-05-05T02:57:36.000Z,7.21
2023-05-05T03:02:36.000Z,7.39
2023-05-05T03:07:35.000Z,7.39
2023-05-05T03:12:36.000Z,7.65
2023-05-05T03:17:35.000Z,7.92
2023-05-05T03:22:36.000Z,8.15
2023-05-05T03:27:36.000Z,8.47
2023-05-05T03:32:36.000Z,8.73
2023-05-05T03:37:35.000Z,8.9
2023-05-05T03:42:35.000Z,8.96
2023-05-05T03:47:36.000Z,8.9
2023-05-05T03:52:35.000Z,9.01
2023-05-05T03:57:36.000Z,9.3
2023-05-05T04:02:36.000Z,9.57
2023-05-05T04:07:35.000Z,9.82
2023-05-05T04:12:36.000Z,9.97
2023-05-05T04:17:36.000Z,10.1
2023-05-05T04:22:36.000Z,10.1
2023-05-05T04:27:35.000Z,10.16
2023-05-05T04:32:36.000Z,10.14
2023-05-05T04:37:36.000Z,10.13
2023-05-05T04:42:36.000Z,10.48
2023-05-05T04:47:36.000Z,10.98
2023-05-05T04:52:35.000Z,11.4
2023-05-05T04:57:36.000Z,11.77
2023-05-05T05:02:36.000Z,12.37
2023-05-05T05:07:36.000Z,12.75
2023-05-05T05:12:35.000Z,12.45
2023-05-05T05:17:36.000Z,12.97
2023-05-05T05:22:35.000Z,13.34
2023-05-05T05:27:36.000Z,13.75
2023-05-05T05:32:35.000Z,13.75
2023-05-05T05:37:36.000Z,15.29
2023-05-05T05:42:36.000Z,18.27
2023-05-05T05:47:36.000Z,20.87
2023-05-05T05:52:36.000Z,22.78
2023-05-05T05:57:36.000Z,22.36
2023-05-05T06:02:38.000Z,22.42
2023-05-05T06:07:35.000Z,22.27
2023-05-05T06:12:36.000Z,23.01
2023-05-05T06:17:35.000Z,22.72
2023-05-05T06:22:36.000Z,21.62
2023-05-05T06:27:36.000Z,22.1
2023-05-05T06:32:35.000Z,22
2023-05-05T06:37:36.000Z,22
2023-05-05T06:42:35.000Z,23.87
2023-05-05T06:47:36.000Z,26.93
2023-05-05T06:52:36.000Z,29.51
2023-05-05T06:57:35.000Z,29.88
2023-05-05T07:02:37.000Z,24.97
2023-05-05T07:07:36.000Z,20.5
2023-05-05T07:12:36.000Z,18.23
2023-05-05T07:17:36.000Z,17.47
2023-05-05T07:22:35.000Z,16.88
2023-05-05T07:27:35.000Z,16.26
2023-05-05T07:32:35.000Z,15.89
2023-05-05T07:37:35.000Z,16.08
2023-05-05T07:42:35.000Z,16.37
2023-05-05T07:47:36.000Z,16.48
2023-05-05T07:52:56.000Z,19.47
2023-05-05T07:57:35.000Z,19.47
2023-05-05T08:02:36.000Z,20.54
2023-05-05T08:07:35.000Z,22.08
2023-05-05T08:12:35.000Z,22.57
2023-05-05T08:17:35.000Z,21.72
2023-05-05T08:22:35.000Z,22.4
2023-05-05T08:27:35.000Z,21.14
2023-05-05T08:32:39.000Z,18.47
2023-05-05T08:37:35.000Z,17.73
2023-05-05T08:42:46.000Z,15.96
2023-05-05T08:47:35.000Z,14.98
2023-05-05T08:52:36.000Z,15.41
2023-05-05T08:57:35.000Z,14.73
2023-05-05T09:02:35.000Z,14.73
2023-05-05T09:07:35.000Z,13.93
2023-05-05T09:12:35.000Z,13.52
2023-05-05T09:17:35.000Z,13.07
2023-05-05T09:22:35.000Z,12.74
2023-05-05T09:27:36.000Z,11.89
2023-05-05T09:32:35.000Z,11.54
2023-05-05T09:37:35.000Z,11.95
2023-05-05T09:42:36.000Z,12.63
2023-05-05T09:47:40.000Z,13.13
2023-05-05T09:52:36.000Z,13.33
2023-05-05T09:57:36.000Z,13.51
2023-05-05T10:02:35.000Z,13.67
2023-05-05T10:07:36.000Z,13.21
2023-05-05T10:12:36.000Z,12.53
2023-05-05T10:17:35.000Z,12.53
2023-05-05T10:22:36.000Z,12.33
2023-05-05T10:27:35.000Z,12.63
2023-05-05T10:33:01.000Z,13.01
2023-05-05T10:37:35.000Z,13.13
2023-05-05T10:42:36.000Z,12.59
2023-05-05T10:47:35.000Z,12.34
2023-05-05T10:52:36.000Z,12.44
2023-05-05T10:57:36.000Z,12.42
2023-05-05T11:02:36.000Z,12.5
2023-05-05T11:07:36.000Z,12.43
2023-05-05T11:12:38.000Z,12.56
2023-05-05T11:17:36.000Z,13.04
2023-05-05T11:22:36.000Z,13.04
2023-05-05T11:27:35.000Z,13.42
2023-05-05T11:32:35.000Z,13.33
2023-05-05T11:37:36.000Z,12.9
2023-05-05T11:42:35.000Z,12.59
2023-05-05T11:47:36.000Z,12.89
2023-05-05T11:52:35.000Z,12.87
2023-05-05T11:57:35.000Z,12.85
2023-05-05T12:02:35.000Z,12.65
2023-05-05T12:07:36.000Z,12.39
2023-05-05T12:12:35.000Z,11.96
2023-05-05T12:17:36.000Z,11.69
2023-05-05T12:22:35.000Z,11.36
2023-05-05T12:27:36.000Z,11.18
2023-05-05T12:32:35.000Z,11.06
2023-05-05T12:37:36.000Z,11.06
2023-05-05T12:42:36.000Z,11.25
2023-05-05T12:47:35.000Z,11.15
2023-05-05T12:52:36.000Z,11.17
2023-05-05T12:57:35.000Z,10.87
2023-05-05T13:02:36.000Z,10.32
2023-05-05T13:07:36.000Z,10.01
2023-05-05T13:12:36.000Z,10.02
2023-05-05T13:17:36.000Z,10.25
2023-05-05T13:22:35.000Z,10.32
2023-05-05T13:27:35.000Z,10.1
2023-05-05T13:32:36.000Z,10.25
2023-05-05T13:37:36.000Z,10.41
2023-05-05T13:42:35.000Z,10.41
2023-05-05T13:47:36.000Z,10.3
2023-05-05T13:52:36.000Z,10.22
2023-05-05T13:57:35.000Z,10.04
2023-05-05T14:02:35.000Z,9.73
2023-05-05T14:07:36.000Z,9.53
2023-05-05T14:12:35.000Z,9.38
2023-05-05T14:17:36.000Z,9.16
2023-05-05T14:22:36.000Z,9.1
2023-05-05T14:27:36.000Z,9.31
2023-05-05T14:32:35.000Z,9.59
2023-05-05T14:37:35.000Z,9.78
2023-05-05T14:42:36.000Z,9.59
2023-05-05T14:47:35.000Z,9.11
2023-05-05T14:52:36.000Z,8.73
2023-05-05T14:57:35.000Z,8.73
2023-05-05T15:02:35.000Z,8.42
2023-05-05T15:07:36.000Z,8.27
2023-05-05T15:12:35.000Z,8.24
2023-05-05T15:17:36.000Z,8.22
2023-05-05T15:22:36.000Z,8.18
2023-05-05T15:27:35.000Z,8.08
2023-05-05T15:32:36.000Z,7.94
2023-05-05T15:37:36.000Z,7.76
2023-05-05T15:42:35.000Z,7.67
2023-05-05T15:47:35.000Z,7.68
2023-05-05T15:52:36.000Z,7.68
2023-05-05T15:57:36.000Z,7.58
2023-05-05T16:02:36.000Z,7.46
2023-05-05T16:07:55.000Z,7.45
2023-05-05T16:12:35.000Z,7.45
2023-05-05T16:17:36.000Z,7.3
2023-05-05T16:22:35.000Z,7.36
2023-05-05T16:27:35.000Z,7.31
2023-05-05T16:32:36.000Z,7.1
2023-05-05T16:37:36.000Z,6.98
2023-05-05T16:42:35.000Z,6.94
2023-05-05T16:47:36.000Z,6.88
2023-05-05T16:52:36.000Z,6.76
2023-05-05T16:57:36.000Z,6.61
2023-05-05T17:02:36.000Z,6.43
2023-05-05T17:07:36.000Z,6.31
2023-05-05T17:12:36.000Z,6.12
2023-05-05T17:17:36.000Z,6.12
2023-05-05T17:22:36.000Z,5.77
2023-05-05T17:27:35.000Z,5.62
2023-05-05T17:32:35.000Z,5.43
2023-05-05T17:37:35.000Z,5.3
2023-05-05T17:42:36.000Z,5.1
2023-05-05T17:47:36.000Z,4.91
2023-05-05T17:52:36.000Z,4.81
2023-05-05T17:57:35.000Z,4.66
2023-05-05T18:02:35.000Z,4.57
2023-05-05T18:07:35.000Z,4.57
2023-05-05T18:12:36.000Z,4.44
2023-05-05T18:17:36.000Z,4.34
2023-05-05T18:22:35.000Z,4.21
2023-05-05T18:27:36.000Z,4.08
2023-05-05T18:32:36.000Z,3.85
2023-05-05T18:37:36.000Z,3.68
2023-05-05T18:42:35.000Z,3.53
2023-05-05T18:47:35.000Z,3.55
2023-05-05T18:52:35.000Z,3.46
2023-05-05T18:57:36.000Z,3.4
2023-05-05T19:02:35.000Z,3.37
2023-05-05T19:07:45.000Z,3.3
2023-05-05T19:12:35.000Z,3.11
2023-05-05T19:17:36.000Z,3.07
2023-05-05T19:22:35.000Z,3.06
2023-05-05T19:27:36.000Z,3.03
2023-05-05T19:32:36.000Z,3.03
2023-05-05T19:37:36.000Z,2.99
2023-05-05T19:42:35.000Z,2.87
2023-05-05T19:47:35.000Z,2.83
2023-05-05T19:52:36.000Z,2.83
2023-05-05T19:57:35.000Z,2.86
2023-05-05T20:02:35.000Z,2.85
2023-05-05T20:07:36.000Z,2.85
2023-05-05T20:12:35.000Z,2.85
2023-05-05T20:17:35.000Z,2.81
2023-05-05T20:22:36.000Z,2.82
2023-05-05T20:27:38.000Z,2.84
2023-05-05T20:32:36.000Z,2.88
2023-05-05T20:37:36.000Z,2.93
2023-05-05T20:42:36.000Z,2.95
2023-05-05T20:47:35.000Z,2.89
2023-05-05T20:52:36.000Z,2.86
2023-05-05T20:57:35.000Z,2.81
2023-05-05T21:02:35.000Z,2.81
2023-05-05T21:07:36.000Z,2.72
2023-05-05T21:12:35.000Z,2.7
2023-05-05T21:17:36.000Z,2.66
2023-05-05T21:22:35.000Z,2.59
2023-05-05T21:27:36.000Z,2.59
2023-05-05T21:32:35.000Z,2.58
2023-05-05T21:37:36.000Z,2.58
2023-05-05T21:42:35.000Z,2.53
2023-05-05T21:47:36.000Z,2.51
2023-05-05T21:52:35.000Z,2.47
2023-05-05T21:57:35.000Z,2.43
2023-05-05T22:02:36.000Z,2.37
2023-05-05T22:07:35.000Z,2.34
2023-05-05T22:12:35.000Z,2.34
2023-05-05T22:17:35.000Z,2.29
2023-05-05T22:22:35.000Z,2.23
2023-05-05T22:27:35.000Z,2.17
2023-05-05T22:32:36.000Z,2.09
2023-05-05T22:37:36.000Z,2.07
2023-05-05T22:42:35.000Z,2.05
2023-05-05T22:47:36.000Z,2.01
2023-05-05T22:52:35.000Z,1.93
2023-05-05T22:57:35.000Z,1.91
2023-05-05T23:02:36.000Z,1.87
2023-05-05T23:07:35.000Z,1.8
2023-05-05T23:12:35.000Z,1.74
2023-05-05T23:17:35.000Z,1.74
2023-05-05T23:22:35.000Z,1.74
2023-05-05T23:27:35.000Z,1.71
2023-05-05T23:32:35.000Z,1.65
2023-05-05T23:37:36.000Z,1.58
2023-05-05T23:42:35.000Z,1.53
2023-05-05T23:47:35.000Z,1.47
2023-05-05T23:52:36.000Z,1.4
2023-05-05T23:57:36.000Z,1.4
